aviador You're here:

LJMB Decoded Metar

MARIBOR in SLOVENIA
Report Time2018-07-23 11:00:00
UTC Time2018-07-23 11:18:46
Flight Rules vfr VFR
Wind350° at 10 kt
W.Decomp.*RWY 32: 8.9 kt HW 4.5 kt RCW
W.Rank350° ranks 2
Current wind is above 350° avg. (6.6)
Visibility9999 m
Phenomena:N/A
Clouds:Few 040 Hf
Overcast 050 Hf
Expected CloudBase > 800 ft AGL from Temp-Dew spread
Ceiling5,000 ft
Temp19°C (ISA +6)
Dew Point17°C (88% RH)
AAT17.8°C
QNH1013 hPa
Density Alt1,801 ft
Elevation869 ft
Report Wrong Elevation
Raw Report
LJMB 231100Z 35010KT 9999 FEW040 OVC050 19/17 Q1013=

Extra information for LJMB:More info

Metar Taf Metar & Taf Last 4 Metars F.Rules Stats Wind Profile Meteogram Temp Stats Airport Information Weather charts Add Link Nearby VenuesMetar ALERT Operation Metar Decoded Social comments